sensor_id;sensor_type;location;lat;lon;timestamp;P1;durP1;ratioP1;P2;durP2;ratioP2
11486;SDS011;10510;47.942;9.442;2023-12-14T00:01:22;8.02;;;4.70;;
11486;SDS011;10510;47.942;9.442;2023-12-14T00:03:23;6.63;;;4.00;;
11486;SDS011;10510;47.942;9.442;2023-12-14T00:05:23;6.80;;;3.90;;
11486;SDS011;10510;47.942;9.442;2023-12-14T00:07:23;6.88;;;4.10;;
11486;SDS011;10510;47.942;9.442;2023-12-14T00:09:23;7.70;;;4.43;;
11486;SDS011;10510;47.942;9.442;2023-12-14T00:11:24;9.95;;;4.53;;
11486;SDS011;10510;47.942;9.442;2023-12-14T00:13:24;10.40;;;4.75;;
11486;SDS011;10510;47.942;9.442;2023-12-14T00:15:24;7.32;;;5.10;;
11486;SDS011;10510;47.942;9.442;2023-12-14T00:17:24;10.50;;;5.00;;
11486;SDS011;10510;47.942;9.442;2023-12-14T00:19:25;12.95;;;5.18;;
11486;SDS011;10510;47.942;9.442;2023-12-14T00:21:25;12.48;;;5.03;;
11486;SDS011;10510;47.942;9.442;2023-12-14T00:23:25;13.35;;;5.05;;
11486;SDS011;10510;47.942;9.442;2023-12-14T00:25:26;8.43;;;4.18;;
11486;SDS011;10510;47.942;9.442;2023-12-14T00:27:27;11.50;;;4.45;;
11486;SDS011;10510;47.942;9.442;2023-12-14T00:29:27;13.13;;;4.82;;
11486;SDS011;10510;47.942;9.442;2023-12-14T00:31:27;8.75;;;4.85;;
11486;SDS011;10510;47.942;9.442;2023-12-14T00:33:28;12.10;;;5.55;;
11486;SDS011;10510;47.942;9.442;2023-12-14T00:35:28;15.68;;;4.95;;
11486;SDS011;10510;47.942;9.442;2023-12-14T00:37:28;11.73;;;5.38;;
11486;SDS011;10510;47.942;9.442;2023-12-14T00:39:29;15.02;;;4.90;;
11486;SDS011;10510;47.942;9.442;2023-12-14T00:41:29;13.30;;;5.43;;
11486;SDS011;10510;47.942;9.442;2023-12-14T00:43:29;11.15;;;5.35;;
11486;SDS011;10510;47.942;9.442;2023-12-14T00:45:30;10.02;;;4.85;;
11486;SDS011;10510;47.942;9.442;2023-12-14T00:47:30;13.85;;;5.05;;
11486;SDS011;10510;47.942;9.442;2023-12-14T00:49:30;11.93;;;4.75;;
11486;SDS011;10510;47.942;9.442;2023-12-14T00:51:31;11.13;;;5.05;;
11486;SDS011;10510;47.942;9.442;2023-12-14T00:53:31;11.32;;;4.35;;
11486;SDS011;10510;47.942;9.442;2023-12-14T00:55:31;7.82;;;4.15;;
11486;SDS011;10510;47.942;9.442;2023-12-14T00:57:31;7.80;;;4.35;;
11486;SDS011;10510;47.942;9.442;2023-12-14T00:59:32;8.30;;;4.40;;
11486;SDS011;10510;47.942;9.442;2023-12-14T01:01:32;8.07;;;4.63;;
11486;SDS011;10510;47.942;9.442;2023-12-14T01:03:32;10.23;;;5.10;;
11486;SDS011;10510;47.942;9.442;2023-12-14T01:05:33;10.10;;;5.43;;
11486;SDS011;10510;47.942;9.442;2023-12-14T01:07:33;9.38;;;4.65;;
11486;SDS011;10510;47.942;9.442;2023-12-14T01:09:33;11.05;;;4.25;;
11486;SDS011;10510;47.942;9.442;2023-12-14T01:11:34;9.00;;;4.53;;
11486;SDS011;10510;47.942;9.442;2023-12-14T01:13:34;11.40;;;4.88;;
11486;SDS011;10510;47.942;9.442;2023-12-14T01:15:34;9.52;;;5.15;;
11486;SDS011;10510;47.942;9.442;2023-12-14T01:17:35;9.65;;;5.00;;
11486;SDS011;10510;47.942;9.442;2023-12-14T01:19:39;13.32;;;5.72;;
11486;SDS011;10510;47.942;9.442;2023-12-14T01:21:40;11.60;;;4.97;;
11486;SDS011;10510;47.942;9.442;2023-12-14T01:23:41;12.82;;;5.57;;
11486;SDS011;10510;47.942;9.442;2023-12-14T01:25:41;9.23;;;4.20;;
11486;SDS011;10510;47.942;9.442;2023-12-14T01:27:41;11.15;;;4.72;;
11486;SDS011;10510;47.942;9.442;2023-12-14T01:29:42;10.30;;;4.50;;
11486;SDS011;10510;47.942;9.442;2023-12-14T01:31:42;10.02;;;5.10;;
11486;SDS011;10510;47.942;9.442;2023-12-14T01:33:42;8.63;;;4.80;;
11486;SDS011;10510;47.942;9.442;2023-12-14T01:35:43;12.82;;;5.53;;
11486;SDS011;10510;47.942;9.442;2023-12-14T01:37:43;12.07;;;6.22;;
11486;SDS011;10510;47.942;9.442;2023-12-14T01:39:43;12.75;;;5.57;;
11486;SDS011;10510;47.942;9.442;2023-12-14T01:41:43;8.43;;;4.68;;
11486;SDS011;10510;47.942;9.442;2023-12-14T01:43:44;10.82;;;4.70;;
11486;SDS011;10510;47.942;9.442;2023-12-14T01:45:44;10.40;;;6.10;;
11486;SDS011;10510;47.942;9.442;2023-12-14T01:47:45;12.60;;;6.28;;
11486;SDS011;10510;47.942;9.442;2023-12-14T01:49:45;15.60;;;5.50;;
11486;SDS011;10510;47.942;9.442;2023-12-14T01:51:45;14.25;;;6.28;;
11486;SDS011;10510;47.942;9.442;2023-12-14T01:53:46;12.70;;;6.05;;
11486;SDS011;10510;47.942;9.442;2023-12-14T01:55:46;11.35;;;5.75;;
11486;SDS011;10510;47.942;9.442;2023-12-14T01:57:46;10.68;;;5.53;;
11486;SDS011;10510;47.942;9.442;2023-12-14T01:59:47;10.25;;;5.45;;
11486;SDS011;10510;47.942;9.442;2023-12-14T02:01:51;12.75;;;6.18;;
11486;SDS011;10510;47.942;9.442;2023-12-14T02:03:53;15.23;;;5.47;;
11486;SDS011;10510;47.942;9.442;2023-12-14T02:05:54;11.35;;;5.40;;
11486;SDS011;10510;47.942;9.442;2023-12-14T02:07:54;13.15;;;6.00;;
11486;SDS011;10510;47.942;9.442;2023-12-14T02:09:54;18.02;;;6.13;;
11486;SDS011;10510;47.942;9.442;2023-12-14T02:11:55;9.65;;;5.25;;
11486;SDS011;10510;47.942;9.442;2023-12-14T02:13:55;8.98;;;5.00;;
11486;SDS011;10510;47.942;9.442;2023-12-14T02:15:55;10.85;;;5.63;;
11486;SDS011;10510;47.942;9.442;2023-12-14T02:17:55;8.35;;;4.57;;
11486;SDS011;10510;47.942;9.442;2023-12-14T02:19:56;10.07;;;5.13;;
11486;SDS011;10510;47.942;9.442;2023-12-14T02:21:56;10.32;;;5.63;;
11486;SDS011;10510;47.942;9.442;2023-12-14T02:23:57;8.93;;;5.03;;
11486;SDS011;10510;47.942;9.442;2023-12-14T02:25:57;11.00;;;5.20;;
11486;SDS011;10510;47.942;9.442;2023-12-14T02:27:57;10.10;;;5.15;;
11486;SDS011;10510;47.942;9.442;2023-12-14T02:29:57;10.27;;;5.03;;
11486;SDS011;10510;47.942;9.442;2023-12-14T02:31:58;10.85;;;4.90;;
11486;SDS011;10510;47.942;9.442;2023-12-14T02:33:58;11.45;;;5.55;;
11486;SDS011;10510;47.942;9.442;2023-12-14T02:35:59;10.50;;;5.10;;
11486;SDS011;10510;47.942;9.442;2023-12-14T02:37:59;9.75;;;5.05;;
11486;SDS011;10510;47.942;9.442;2023-12-14T02:40:00;7.85;;;4.50;;
11486;SDS011;10510;47.942;9.442;2023-12-14T02:42:00;10.02;;;4.65;;
11486;SDS011;10510;47.942;9.442;2023-12-14T02:44:02;10.80;;;5.03;;
11486;SDS011;10510;47.942;9.442;2023-12-14T02:46:02;9.48;;;4.93;;
11486;SDS011;10510;47.942;9.442;2023-12-14T02:48:02;9.80;;;4.55;;
11486;SDS011;10510;47.942;9.442;2023-12-14T02:50:03;8.45;;;4.72;;
11486;SDS011;10510;47.942;9.442;2023-12-14T02:52:04;9.05;;;4.57;;
11486;SDS011;10510;47.942;9.442;2023-12-14T02:54:04;10.38;;;4.45;;
11486;SDS011;10510;47.942;9.442;2023-12-14T02:56:04;8.40;;;4.63;;
11486;SDS011;10510;47.942;9.442;2023-12-14T02:58:05;7.20;;;4.18;;
11486;SDS011;10510;47.942;9.442;2023-12-14T03:00:06;8.20;;;4.50;;
11486;SDS011;10510;47.942;9.442;2023-12-14T03:02:06;9.48;;;4.43;;
11486;SDS011;10510;47.942;9.442;2023-12-14T03:04:07;9.88;;;4.95;;
11486;SDS011;10510;47.942;9.442;2023-12-14T03:06:07;12.20;;;5.25;;
11486;SDS011;10510;47.942;9.442;2023-12-14T03:08:07;8.90;;;4.70;;
11486;SDS011;10510;47.942;9.442;2023-12-14T03:10:08;10.23;;;4.85;;
11486;SDS011;10510;47.942;9.442;2023-12-14T03:12:09;9.52;;;4.57;;
11486;SDS011;10510;47.942;9.442;2023-12-14T03:14:09;9.50;;;4.90;;
11486;SDS011;10510;47.942;9.442;2023-12-14T03:16:09;8.18;;;4.57;;
11486;SDS011;10510;47.942;9.442;2023-12-14T03:18:10;9.48;;;5.25;;
11486;SDS011;10510;47.942;9.442;2023-12-14T03:20:12;10.05;;;4.72;;
11486;SDS011;10510;47.942;9.442;2023-12-14T03:22:14;9.63;;;4.60;;
11486;SDS011;10510;47.942;9.442;2023-12-14T03:24:14;9.52;;;4.80;;
11486;SDS011;10510;47.942;9.442;2023-12-14T03:26:14;10.38;;;4.47;;
11486;SDS011;10510;47.942;9.442;2023-12-14T03:28:15;8.32;;;4.13;;
11486;SDS011;10510;47.942;9.442;2023-12-14T03:30:15;8.48;;;4.60;;
11486;SDS011;10510;47.942;9.442;2023-12-14T03:32:15;11.18;;;5.30;;
11486;SDS011;10510;47.942;9.442;2023-12-14T03:34:16;10.45;;;4.47;;
11486;SDS011;10510;47.942;9.442;2023-12-14T03:36:17;9.43;;;4.95;;
11486;SDS011;10510;47.942;9.442;2023-12-14T03:38:17;8.27;;;4.35;;
11486;SDS011;10510;47.942;9.442;2023-12-14T03:40:17;10.20;;;5.18;;
11486;SDS011;10510;47.942;9.442;2023-12-14T03:42:18;9.32;;;4.72;;
11486;SDS011;10510;47.942;9.442;2023-12-14T03:44:18;10.23;;;4.43;;
11486;SDS011;10510;47.942;9.442;2023-12-14T03:46:19;9.80;;;4.13;;
11486;SDS011;10510;47.942;9.442;2023-12-14T03:48:19;10.75;;;5.53;;
11486;SDS011;10510;47.942;9.442;2023-12-14T03:50:19;8.77;;;4.57;;
11486;SDS011;10510;47.942;9.442;2023-12-14T03:52:20;10.27;;;4.70;;
11486;SDS011;10510;47.942;9.442;2023-12-14T03:54:20;12.05;;;5.13;;
11486;SDS011;10510;47.942;9.442;2023-12-14T03:56:20;10.00;;;4.57;;
11486;SDS011;10510;47.942;9.442;2023-12-14T03:58:20;8.88;;;4.38;;
11486;SDS011;10510;47.942;9.442;2023-12-14T04:00:21;8.85;;;5.03;;
11486;SDS011;10510;47.942;9.442;2023-12-14T04:02:21;9.93;;;4.88;;
11486;SDS011;10510;47.942;9.442;2023-12-14T04:04:22;11.15;;;4.95;;
11486;SDS011;10510;47.942;9.442;2023-12-14T04:06:22;10.43;;;4.72;;
11486;SDS011;10510;47.942;9.442;2023-12-14T04:08:22;9.95;;;5.07;;
11486;SDS011;10510;47.942;9.442;2023-12-14T04:10:22;12.18;;;4.78;;
11486;SDS011;10510;47.942;9.442;2023-12-14T04:12:23;9.05;;;4.20;;
11486;SDS011;10510;47.942;9.442;2023-12-14T04:14:23;7.63;;;4.07;;
11486;SDS011;10510;47.942;9.442;2023-12-14T04:16:23;8.05;;;4.32;;
11486;SDS011;10510;47.942;9.442;2023-12-14T04:18:24;10.88;;;5.00;;
11486;SDS011;10510;47.942;9.442;2023-12-14T04:20:24;7.40;;;4.00;;
11486;SDS011;10510;47.942;9.442;2023-12-14T04:22:25;10.25;;;4.22;;
11486;SDS011;10510;47.942;9.442;2023-12-14T04:24:25;13.93;;;4.32;;
11486;SDS011;10510;47.942;9.442;2023-12-14T04:26:26;10.05;;;4.55;;
11486;SDS011;10510;47.942;9.442;2023-12-14T04:28:27;9.00;;;4.32;;
11486;SDS011;10510;47.942;9.442;2023-12-14T04:30:27;9.57;;;4.72;;
11486;SDS011;10510;47.942;9.442;2023-12-14T04:32:27;12.35;;;5.03;;
11486;SDS011;10510;47.942;9.442;2023-12-14T04:34:28;11.85;;;5.32;;
11486;SDS011;10510;47.942;9.442;2023-12-14T04:36:28;12.75;;;6.13;;
11486;SDS011;10510;47.942;9.442;2023-12-14T04:38:28;15.07;;;6.15;;
11486;SDS011;10510;47.942;9.442;2023-12-14T04:40:28;13.27;;;6.05;;
11486;SDS011;10510;47.942;9.442;2023-12-14T04:42:29;18.20;;;6.07;;
11486;SDS011;10510;47.942;9.442;2023-12-14T04:44:29;12.60;;;5.65;;
11486;SDS011;10510;47.942;9.442;2023-12-14T04:46:29;15.73;;;5.57;;
11486;SDS011;10510;47.942;9.442;2023-12-14T04:48:29;17.85;;;7.25;;
11486;SDS011;10510;47.942;9.442;2023-12-14T04:50:30;18.73;;;7.28;;
11486;SDS011;10510;47.942;9.442;2023-12-14T04:52:30;19.83;;;7.35;;
11486;SDS011;10510;47.942;9.442;2023-12-14T04:54:30;38.50;;;12.63;;
11486;SDS011;10510;47.942;9.442;2023-12-14T04:56:31;22.15;;;7.85;;
11486;SDS011;10510;47.942;9.442;2023-12-14T04:58:31;32.30;;;11.73;;
11486;SDS011;10510;47.942;9.442;2023-12-14T05:00:31;47.53;;;19.63;;
11486;SDS011;10510;47.942;9.442;2023-12-14T05:02:32;27.45;;;11.43;;
11486;SDS011;10510;47.942;9.442;2023-12-14T05:04:32;29.33;;;10.93;;
11486;SDS011;10510;47.942;9.442;2023-12-14T05:06:33;22.45;;;8.93;;
11486;SDS011;10510;47.942;9.442;2023-12-14T05:08:34;22.38;;;8.55;;
11486;SDS011;10510;47.942;9.442;2023-12-14T05:10:34;25.70;;;7.28;;
11486;SDS011;10510;47.942;9.442;2023-12-14T05:12:34;15.27;;;6.70;;
11486;SDS011;10510;47.942;9.442;2023-12-14T05:14:34;18.13;;;7.40;;
11486;SDS011;10510;47.942;9.442;2023-12-14T05:16:35;18.33;;;7.38;;
11486;SDS011;10510;47.942;9.442;2023-12-14T05:18:35;18.65;;;7.10;;
11486;SDS011;10510;47.942;9.442;2023-12-14T05:20:35;15.35;;;6.18;;
11486;SDS011;10510;47.942;9.442;2023-12-14T05:22:35;18.83;;;6.95;;
11486;SDS011;10510;47.942;9.442;2023-12-14T05:24:36;16.77;;;6.38;;
11486;SDS011;10510;47.942;9.442;2023-12-14T05:26:36;13.65;;;6.60;;
11486;SDS011;10510;47.942;9.442;2023-12-14T05:28:37;15.55;;;6.95;;
11486;SDS011;10510;47.942;9.442;2023-12-14T05:30:37;15.73;;;7.07;;
11486;SDS011;10510;47.942;9.442;2023-12-14T05:32:37;21.08;;;7.95;;
11486;SDS011;10510;47.942;9.442;2023-12-14T05:34:37;15.23;;;6.28;;
11486;SDS011;10510;47.942;9.442;2023-12-14T05:36:38;15.07;;;6.28;;
11486;SDS011;10510;47.942;9.442;2023-12-14T05:38:38;16.02;;;6.78;;
11486;SDS011;10510;47.942;9.442;2023-12-14T05:40:39;15.75;;;7.10;;
11486;SDS011;10510;47.942;9.442;2023-12-14T05:42:40;15.68;;;6.78;;
11486;SDS011;10510;47.942;9.442;2023-12-14T05:44:41;18.48;;;6.60;;
11486;SDS011;10510;47.942;9.442;2023-12-14T05:46:41;15.85;;;5.90;;
11486;SDS011;10510;47.942;9.442;2023-12-14T05:48:41;18.23;;;7.35;;
11486;SDS011;10510;47.942;9.442;2023-12-14T05:50:42;14.95;;;6.47;;
11486;SDS011;10510;47.942;9.442;2023-12-14T05:52:42;18.77;;;6.50;;
11486;SDS011;10510;47.942;9.442;2023-12-14T05:54:42;14.05;;;6.28;;
11486;SDS011;10510;47.942;9.442;2023-12-14T05:56:43;13.77;;;6.75;;
11486;SDS011;10510;47.942;9.442;2023-12-14T05:58:43;19.92;;;6.70;;
11486;SDS011;10510;47.942;9.442;2023-12-14T06:00:43;19.17;;;6.93;;
11486;SDS011;10510;47.942;9.442;2023-12-14T06:02:44;16.33;;;7.70;;
11486;SDS011;10510;47.942;9.442;2023-12-14T06:04:44;20.88;;;7.90;;
11486;SDS011;10510;47.942;9.442;2023-12-14T06:06:45;15.23;;;7.57;;
11486;SDS011;10510;47.942;9.442;2023-12-14T06:08:45;18.90;;;7.75;;
11486;SDS011;10510;47.942;9.442;2023-12-14T06:10:46;18.40;;;8.07;;
11486;SDS011;10510;47.942;9.442;2023-12-14T06:12:46;14.00;;;7.05;;
11486;SDS011;10510;47.942;9.442;2023-12-14T06:14:46;20.13;;;10.93;;
11486;SDS011;10510;47.942;9.442;2023-12-14T06:16:47;19.23;;;8.65;;
11486;SDS011;10510;47.942;9.442;2023-12-14T06:18:47;18.30;;;9.07;;
11486;SDS011;10510;47.942;9.442;2023-12-14T06:20:47;18.35;;;7.88;;
11486;SDS011;10510;47.942;9.442;2023-12-14T06:22:48;19.33;;;8.57;;
11486;SDS011;10510;47.942;9.442;2023-12-14T06:24:49;21.27;;;9.98;;
11486;SDS011;10510;47.942;9.442;2023-12-14T06:26:49;26.75;;;13.23;;
11486;SDS011;10510;47.942;9.442;2023-12-14T06:28:49;21.73;;;10.88;;
11486;SDS011;10510;47.942;9.442;2023-12-14T06:30:50;24.23;;;11.13;;
11486;SDS011;10510;47.942;9.442;2023-12-14T06:32:50;23.73;;;11.63;;
11486;SDS011;10510;47.942;9.442;2023-12-14T06:34:50;18.05;;;7.97;;
11486;SDS011;10510;47.942;9.442;2023-12-14T06:36:50;18.88;;;7.55;;
11486;SDS011;10510;47.942;9.442;2023-12-14T06:38:51;15.95;;;7.22;;
11486;SDS011;10510;47.942;9.442;2023-12-14T06:40:51;21.52;;;7.28;;
11486;SDS011;10510;47.942;9.442;2023-12-14T06:42:51;20.13;;;8.65;;
11486;SDS011;10510;47.942;9.442;2023-12-14T06:44:52;15.68;;;6.72;;
11486;SDS011;10510;47.942;9.442;2023-12-14T06:46:52;14.98;;;6.28;;
11486;SDS011;10510;47.942;9.442;2023-12-14T06:48:52;12.50;;;5.53;;
11486;SDS011;10510;47.942;9.442;2023-12-14T06:50:53;16.05;;;6.45;;
11486;SDS011;10510;47.942;9.442;2023-12-14T06:52:54;14.75;;;6.47;;
11486;SDS011;10510;47.942;9.442;2023-12-14T06:54:55;18.02;;;6.28;;
11486;SDS011;10510;47.942;9.442;2023-12-14T06:56:55;12.48;;;5.45;;
11486;SDS011;10510;47.942;9.442;2023-12-14T06:58:55;11.90;;;5.32;;
11486;SDS011;10510;47.942;9.442;2023-12-14T07:00:55;15.32;;;6.35;;
11486;SDS011;10510;47.942;9.442;2023-12-14T07:02:56;21.52;;;7.55;;
11486;SDS011;10510;47.942;9.442;2023-12-14T07:04:56;21.67;;;7.70;;
11486;SDS011;10510;47.942;9.442;2023-12-14T07:06:56;16.73;;;7.32;;
11486;SDS011;10510;47.942;9.442;2023-12-14T07:08:57;16.17;;;6.93;;
11486;SDS011;10510;47.942;9.442;2023-12-14T07:10:57;20.17;;;6.13;;
11486;SDS011;10510;47.942;9.442;2023-12-14T07:12:57;13.40;;;5.75;;
11486;SDS011;10510;47.942;9.442;2023-12-14T07:14:58;15.73;;;5.75;;
11486;SDS011;10510;47.942;9.442;2023-12-14T07:16:59;12.82;;;5.43;;
11486;SDS011;10510;47.942;9.442;2023-12-14T07:18:59;18.38;;;7.80;;
11486;SDS011;10510;47.942;9.442;2023-12-14T07:20:59;19.98;;;7.22;;
11486;SDS011;10510;47.942;9.442;2023-12-14T07:22:59;14.38;;;5.93;;
11486;SDS011;10510;47.942;9.442;2023-12-14T07:25:00;16.52;;;5.90;;
11486;SDS011;10510;47.942;9.442;2023-12-14T07:27:00;17.75;;;7.00;;
11486;SDS011;10510;47.942;9.442;2023-12-14T07:29:00;16.15;;;7.53;;
11486;SDS011;10510;47.942;9.442;2023-12-14T07:31:01;17.88;;;7.95;;
11486;SDS011;10510;47.942;9.442;2023-12-14T07:33:01;18.83;;;8.48;;
11486;SDS011;10510;47.942;9.442;2023-12-14T07:35:02;18.90;;;7.75;;
11486;SDS011;10510;47.942;9.442;2023-12-14T07:37:02;18.10;;;8.25;;
11486;SDS011;10510;47.942;9.442;2023-12-14T07:39:03;16.75;;;8.50;;
11486;SDS011;10510;47.942;9.442;2023-12-14T07:41:03;15.40;;;8.55;;
11486;SDS011;10510;47.942;9.442;2023-12-14T07:43:04;20.77;;;8.65;;
11486;SDS011;10510;47.942;9.442;2023-12-14T07:45:04;18.17;;;8.85;;
11486;SDS011;10510;47.942;9.442;2023-12-14T07:47:05;14.95;;;6.70;;
11486;SDS011;10510;47.942;9.442;2023-12-14T07:49:05;15.13;;;5.80;;
11486;SDS011;10510;47.942;9.442;2023-12-14T07:51:06;14.43;;;5.80;;
11486;SDS011;10510;47.942;9.442;2023-12-14T07:53:06;13.38;;;5.47;;
11486;SDS011;10510;47.942;9.442;2023-12-14T07:55:06;13.98;;;6.22;;
11486;SDS011;10510;47.942;9.442;2023-12-14T07:57:07;12.07;;;5.35;;
11486;SDS011;10510;47.942;9.442;2023-12-14T07:59:08;11.55;;;4.95;;
11486;SDS011;10510;47.942;9.442;2023-12-14T08:01:09;14.50;;;5.25;;
11486;SDS011;10510;47.942;9.442;2023-12-14T08:03:09;11.10;;;5.13;;
11486;SDS011;10510;47.942;9.442;2023-12-14T08:05:10;14.95;;;5.80;;
11486;SDS011;10510;47.942;9.442;2023-12-14T08:07:10;11.65;;;5.53;;
11486;SDS011;10510;47.942;9.442;2023-12-14T08:09:11;11.75;;;5.22;;
11486;SDS011;10510;47.942;9.442;2023-12-14T08:11:11;14.30;;;5.60;;
11486;SDS011;10510;47.942;9.442;2023-12-14T08:13:11;11.57;;;5.15;;
11486;SDS011;10510;47.942;9.442;2023-12-14T08:15:12;13.82;;;5.72;;
11486;SDS011;10510;47.942;9.442;2023-12-14T08:17:12;12.70;;;5.78;;
11486;SDS011;10510;47.942;9.442;2023-12-14T08:19:12;12.25;;;5.57;;
11486;SDS011;10510;47.942;9.442;2023-12-14T08:21:12;10.95;;;5.15;;
11486;SDS011;10510;47.942;9.442;2023-12-14T08:23:13;15.10;;;6.00;;
11486;SDS011;10510;47.942;9.442;2023-12-14T08:25:13;15.07;;;5.63;;
11486;SDS011;10510;47.942;9.442;2023-12-14T08:27:14;14.30;;;5.80;;
11486;SDS011;10510;47.942;9.442;2023-12-14T08:29:14;13.73;;;6.57;;
11486;SDS011;10510;47.942;9.442;2023-12-14T08:31:15;14.60;;;5.78;;
11486;SDS011;10510;47.942;9.442;2023-12-14T08:33:15;14.18;;;5.70;;
11486;SDS011;10510;47.942;9.442;2023-12-14T08:35:15;13.80;;;5.90;;
11486;SDS011;10510;47.942;9.442;2023-12-14T08:37:15;15.23;;;5.70;;
11486;SDS011;10510;47.942;9.442;2023-12-14T08:39:16;14.40;;;7.10;;
11486;SDS011;10510;47.942;9.442;2023-12-14T08:41:16;14.57;;;6.85;;
11486;SDS011;10510;47.942;9.442;2023-12-14T08:43:16;15.40;;;7.40;;
11486;SDS011;10510;47.942;9.442;2023-12-14T08:45:17;15.48;;;6.88;;
11486;SDS011;10510;47.942;9.442;2023-12-14T08:47:17;14.85;;;6.72;;
11486;SDS011;10510;47.942;9.442;2023-12-14T08:49:18;16.98;;;6.63;;
11486;SDS011;10510;47.942;9.442;2023-12-14T08:51:18;15.45;;;8.32;;
11486;SDS011;10510;47.942;9.442;2023-12-14T08:53:20;18.83;;;8.57;;
11486;SDS011;10510;47.942;9.442;2023-12-14T08:55:20;16.88;;;8.38;;
11486;SDS011;10510;47.942;9.442;2023-12-14T08:57:21;16.05;;;7.40;;
11486;SDS011;10510;47.942;9.442;2023-12-14T08:59:22;15.70;;;6.72;;
11486;SDS011;10510;47.942;9.442;2023-12-14T09:01:22;17.52;;;6.45;;
11486;SDS011;10510;47.942;9.442;2023-12-14T09:03:23;16.60;;;6.97;;
11486;SDS011;10510;47.942;9.442;2023-12-14T09:05:23;14.05;;;5.82;;
11486;SDS011;10510;47.942;9.442;2023-12-14T09:07:24;11.20;;;5.95;;
11486;SDS011;10510;47.942;9.442;2023-12-14T09:09:24;14.68;;;6.22;;
11486;SDS011;10510;47.942;9.442;2023-12-14T09:11:24;11.63;;;6.10;;
11486;SDS011;10510;47.942;9.442;2023-12-14T09:13:24;13.20;;;6.00;;
11486;SDS011;10510;47.942;9.442;2023-12-14T09:15:25;13.25;;;5.25;;
11486;SDS011;10510;47.942;9.442;2023-12-14T09:17:25;13.57;;;5.75;;
11486;SDS011;10510;47.942;9.442;2023-12-14T09:19:28;12.98;;;4.60;;
11486;SDS011;10510;47.942;9.442;2023-12-14T09:21:30;10.95;;;5.32;;
11486;SDS011;10510;47.942;9.442;2023-12-14T09:23:31;14.18;;;5.82;;
11486;SDS011;10510;47.942;9.442;2023-12-14T09:25:32;11.45;;;5.40;;
11486;SDS011;10510;47.942;9.442;2023-12-14T09:27:33;13.60;;;5.97;;
11486;SDS011;10510;47.942;9.442;2023-12-14T09:29:33;14.45;;;6.35;;
11486;SDS011;10510;47.942;9.442;2023-12-14T09:31:33;14.48;;;5.53;;
11486;SDS011;10510;47.942;9.442;2023-12-14T09:33:34;11.93;;;5.03;;
11486;SDS011;10510;47.942;9.442;2023-12-14T09:35:34;12.77;;;5.30;;
11486;SDS011;10510;47.942;9.442;2023-12-14T09:37:38;23.08;;;7.50;;
11486;SDS011;10510;47.942;9.442;2023-12-14T09:39:38;14.77;;;6.25;;
11486;SDS011;10510;47.942;9.442;2023-12-14T09:41:39;22.02;;;7.63;;
11486;SDS011;10510;47.942;9.442;2023-12-14T09:43:39;21.27;;;8.27;;
11486;SDS011;10510;47.942;9.442;2023-12-14T09:45:40;45.00;;;13.25;;
11486;SDS011;10510;47.942;9.442;2023-12-14T09:47:44;17.30;;;7.43;;
11486;SDS011;10510;47.942;9.442;2023-12-14T09:49:46;40.08;;;14.48;;
11486;SDS011;10510;47.942;9.442;2023-12-14T09:51:48;24.85;;;6.03;;
11486;SDS011;10510;47.942;9.442;2023-12-14T09:53:48;17.25;;;6.60;;
11486;SDS011;10510;47.942;9.442;2023-12-14T09:55:48;42.45;;;13.65;;
11486;SDS011;10510;47.942;9.442;2023-12-14T09:57:49;28.05;;;9.90;;
11486;SDS011;10510;47.942;9.442;2023-12-14T09:59:53;24.95;;;9.48;;
11486;SDS011;10510;47.942;9.442;2023-12-14T10:01:59;29.02;;;9.73;;
11486;SDS011;10510;47.942;9.442;2023-12-14T10:04:13;23.45;;;8.20;;
11486;SDS011;10510;47.942;9.442;2023-12-14T10:06:14;17.35;;;6.95;;
11486;SDS011;10510;47.942;9.442;2023-12-14T10:08:15;20.50;;;7.70;;
11486;SDS011;10510;47.942;9.442;2023-12-14T10:10:16;24.75;;;7.65;;
11486;SDS011;10510;47.942;9.442;2023-12-14T10:12:17;24.35;;;8.40;;
11486;SDS011;10510;47.942;9.442;2023-12-14T10:16:33;17.15;;;6.63;;
11486;SDS011;10510;47.942;9.442;2023-12-14T10:18:33;17.33;;;6.95;;
11486;SDS011;10510;47.942;9.442;2023-12-14T10:20:34;15.63;;;6.50;;
11486;SDS011;10510;47.942;9.442;2023-12-14T10:22:35;19.05;;;6.65;;
11486;SDS011;10510;47.942;9.442;2023-12-14T10:24:37;18.17;;;6.07;;
11486;SDS011;10510;47.942;9.442;2023-12-14T10:26:37;10.75;;;4.70;;
11486;SDS011;10510;47.942;9.442;2023-12-14T10:28:40;16.15;;;6.68;;
11486;SDS011;10510;47.942;9.442;2023-12-14T10:30:41;17.38;;;6.78;;
11486;SDS011;10510;47.942;9.442;2023-12-14T10:32:41;14.23;;;5.07;;
11486;SDS011;10510;47.942;9.442;2023-12-14T10:34:42;9.30;;;3.95;;
11486;SDS011;10510;47.942;9.442;2023-12-14T10:36:43;15.27;;;4.68;;
11486;SDS011;10510;47.942;9.442;2023-12-14T10:38:46;10.63;;;4.30;;
11486;SDS011;10510;47.942;9.442;2023-12-14T10:40:48;10.40;;;3.88;;
11486;SDS011;10510;47.942;9.442;2023-12-14T10:42:49;11.00;;;4.43;;
11486;SDS011;10510;47.942;9.442;2023-12-14T10:44:51;8.63;;;3.60;;
11486;SDS011;10510;47.942;9.442;2023-12-14T10:46:54;9.45;;;4.32;;
11486;SDS011;10510;47.942;9.442;2023-12-14T10:48:58;8.02;;;3.50;;
11486;SDS011;10510;47.942;9.442;2023-12-14T10:51:01;8.45;;;3.33;;
11486;SDS011;10510;47.942;9.442;2023-12-14T10:53:02;10.20;;;4.05;;
11486;SDS011;10510;47.942;9.442;2023-12-14T10:55:04;10.63;;;4.43;;
11486;SDS011;10510;47.942;9.442;2023-12-14T10:57:07;8.13;;;4.35;;
11486;SDS011;10510;47.942;9.442;2023-12-14T10:59:08;9.23;;;4.22;;
11486;SDS011;10510;47.942;9.442;2023-12-14T11:01:11;14.15;;;5.13;;
11486;SDS011;10510;47.942;9.442;2023-12-14T11:03:13;12.32;;;4.63;;
11486;SDS011;10510;47.942;9.442;2023-12-14T11:05:15;11.40;;;4.90;;
11486;SDS011;10510;47.942;9.442;2023-12-14T11:07:19;13.85;;;5.20;;
11486;SDS011;10510;47.942;9.442;2023-12-14T11:10:00;14.40;;;5.57;;
11486;SDS011;10510;47.942;9.442;2023-12-14T11:12:01;15.18;;;4.93;;
11486;SDS011;10510;47.942;9.442;2023-12-14T11:14:04;12.63;;;5.65;;
11486;SDS011;10510;47.942;9.442;2023-12-14T11:16:08;9.98;;;4.85;;
11486;SDS011;10510;47.942;9.442;2023-12-14T11:20:23;11.77;;;4.28;;
11486;SDS011;10510;47.942;9.442;2023-12-14T11:22:24;10.10;;;4.45;;
11486;SDS011;10510;47.942;9.442;2023-12-14T11:24:27;8.15;;;3.95;;
11486;SDS011;10510;47.942;9.442;2023-12-14T11:26:27;8.70;;;3.63;;
11486;SDS011;10510;47.942;9.442;2023-12-14T11:28:36;6.70;;;3.50;;
11486;SDS011;10510;47.942;9.442;2023-12-14T11:30:38;7.97;;;3.35;;
11486;SDS011;10510;47.942;9.442;2023-12-14T11:32:38;6.88;;;3.00;;
11486;SDS011;10510;47.942;9.442;2023-12-14T11:34:39;5.57;;;2.88;;
11486;SDS011;10510;47.942;9.442;2023-12-14T11:36:40;5.72;;;3.00;;
11486;SDS011;10510;47.942;9.442;2023-12-14T11:38:42;5.53;;;3.17;;
11486;SDS011;10510;47.942;9.442;2023-12-14T11:40:43;6.25;;;3.35;;
11486;SDS011;10510;47.942;9.442;2023-12-14T11:42:44;5.88;;;3.35;;
11486;SDS011;10510;47.942;9.442;2023-12-14T11:44:46;7.88;;;3.92;;
11486;SDS011;10510;47.942;9.442;2023-12-14T11:46:46;5.60;;;2.95;;
11486;SDS011;10510;47.942;9.442;2023-12-14T11:48:46;6.22;;;3.13;;
11486;SDS011;10510;47.942;9.442;2023-12-14T11:50:48;7.80;;;4.03;;
11486;SDS011;10510;47.942;9.442;2023-12-14T11:52:49;9.02;;;4.78;;
11486;SDS011;10510;47.942;9.442;2023-12-14T11:54:49;8.60;;;4.75;;
11486;SDS011;10510;47.942;9.442;2023-12-14T11:56:50;8.90;;;3.30;;
11486;SDS011;10510;47.942;9.442;2023-12-14T11:58:51;4.15;;;2.55;;
11486;SDS011;10510;47.942;9.442;2023-12-14T12:00:51;5.20;;;2.25;;
11486;SDS011;10510;47.942;9.442;2023-12-14T12:02:51;5.57;;;3.00;;
11486;SDS011;10510;47.942;9.442;2023-12-14T12:04:52;4.00;;;2.17;;